Bode, IA (50519)

08:09 CDT le 27 août 2014 (GMT -0500)
Farm Acreage | Change Station
CLOSE
Current Station
Stations météorologiques personnelles
Location: Bode, IA
Altitude: 1130 ft
Stations météo à proximité

Alt. 1130 ft 42.96 °N, 94.29 °W | Updated 3 minutes ago

Nuageux
Nuageux
62.0 ° F
Paraît 62.0 ° F
N
1.0
Vent Variable Vent de SE
Gusts 4.0 mph

Aujourd'hui
Haut(e) -- | Bas -- ° F
--% Risque de précip.
Hier
Haut(e) -- | Bas -- ° F
Precip. -- pouce
6:36 AM 8:00 PM
Lune montante, 3% visible
Pression 30.19 pouce
Visibilité 10.0 Miles terrestres
Nuages Nuages épars 6000 ft
Point de rosée 59 ° F
Humidité 91%
Précipitations 0.00 pouce
Profondeur de la couche neigeuse Non disponible.
UV 1 sur 12
Pollen 4.30 sur 12
Qualité de l'air Non disponible.
Flu Activity Non disponible.
METAR KAXA 271255Z AUTO 13006KT 10SM SCT060 16/14 A3019 RMK AO2

More Conditions Fewer Conditions

Pression 30.19 pouce
Visibilité 10.0 Miles terrestres
Nuages Nuages épars 6000 ft
Point de rosée 59 ° F
Humidité 91%
Précipitations 0.00 pouce
Profondeur de la couche neigeuse Non disponible.
UV 1 sur 12
Pollen 4.30 sur 12
Qualité de l'air Non disponible.
Flu Activity Non disponible.
METAR KAXA 271255Z AUTO 13006KT 10SM SCT060 16/14 A3019 RMK AO2

More Conditions Fewer Conditions

10-Day Weather Forecast

Almanac

Astronomie

Aug. 27, 2014 Lever Coucher
Temps réel 06:36 CDT 20:00 CDT
Crépuscule civil 06:06 CDT 20:29 CDT
Crépuscule nautique 05:31 CDT 21:04 CDT
Crépuscule astronomique 04:53 CDT 21:42 CDT
Lune 08:37 CDT 20:48 CDT
Durée de lumière visible 14h 22m
Longueur du jour
13h 23m
Tomorrow will be 2m 45s shorter.
Lune montante, 3% of the Moon is Illuminated
Aujourd'hui
Lune montante
Sep 2
Premier quartier
Sep 8
Pleine lune
Sep 15
Dernier quartier
Sep 24
Nouveau

Extrêmes aujourd'hui

State Highs State Lows

Community

WunderPhotos

Upload Photos

1,747,680 Photos téléchargées !

Nearby

Épaisseur de neige

Station Depth Altitude
Pas de nouvelles chutes de neige

Activité sismique

Ville Distance Mag. Time & Date
No recent earthquake activity has been reported nearby.
Minimum magnitude displayed is 2.5.

Températures des eaux côtières

Lieu Température
Aucun rapport de station

Stations météo à proximité